createdAt,value
2024-04-30T00:04:25.553Z,98376.44
2024-04-30T00:09:27.488Z,98358.69
2024-04-30T00:14:29.787Z,98356.75
2024-04-30T00:19:31.852Z,98358.34
2024-04-30T00:24:33.824Z,98358.72
2024-04-30T00:29:35.963Z,98362.53
2024-04-30T00:34:42.343Z,98364.94
2024-04-30T00:39:44.305Z,98364.44
2024-04-30T00:44:46.281Z,98352.84
2024-04-30T00:49:49.127Z,98358.88
2024-04-30T00:54:51.185Z,98340.84
2024-04-30T00:59:53.222Z,98345.19
2024-04-30T01:05:01.999Z,98332.91
2024-04-30T01:10:04.082Z,98342.75
2024-04-30T01:15:06.583Z,98356.97
2024-04-30T01:20:08.855Z,98358.28
2024-04-30T01:25:10.927Z,98344.03
2024-04-30T01:30:12.601Z,98363.97
2024-04-30T01:35:14.358Z,98366.44
2024-04-30T01:40:16.338Z,98353.59
2024-04-30T01:45:18.514Z,98341.34
2024-04-30T01:50:20.091Z,98334.25
2024-04-30T01:55:22.412Z,98336.25
2024-04-30T02:00:24.049Z,98325.53
2024-04-30T02:05:26.082Z,98340.03
2024-04-30T02:10:27.933Z,98348.06
2024-04-30T02:15:29.589Z,98341.19
2024-04-30T02:20:31.429Z,98332.59
2024-04-30T02:25:33.303Z,98330.03
2024-04-30T02:30:54.004Z,98326.97
2024-04-30T02:35:55.672Z,98322.53
2024-04-30T02:40:57.608Z,98299.81
2024-04-30T02:45:59.225Z,98294.72
2024-04-30T02:51:04.504Z,98322.47
2024-04-30T02:56:06.655Z,98303.00
2024-04-30T03:01:12.558Z,98311.59
2024-04-30T03:06:14.224Z,98314.00
2024-04-30T03:11:15.855Z,98297.84
2024-04-30T03:16:17.686Z,98307.34
2024-04-30T03:21:19.695Z,98295.50
2024-04-30T03:26:21.262Z,98292.25
2024-04-30T03:31:23.309Z,98279.44
2024-04-30T03:36:24.950Z,98282.94
2024-04-30T03:41:26.971Z,98310.88
2024-04-30T03:46:28.694Z,98310.38
2024-04-30T03:51:30.306Z,98301.34
2024-04-30T03:56:32.453Z,98306.69
2024-04-30T04:01:34.978Z,98302.19
2024-04-30T04:06:36.983Z,98280.81
2024-04-30T04:11:57.199Z,98295.97
2024-04-30T04:16:59.234Z,98283.94
2024-04-30T04:22:01.471Z,98276.47
2024-04-30T04:27:04.515Z,98294.00
2024-04-30T04:32:07.477Z,98299.84
2024-04-30T04:37:09.519Z,98300.94
2024-04-30T04:42:11.135Z,98292.69
2024-04-30T04:47:12.840Z,98288.50
2024-04-30T04:52:14.401Z,98307.72
2024-04-30T04:57:16.021Z,98301.94
2024-04-30T05:02:17.713Z,98298.94
2024-04-30T05:07:19.418Z,98303.66
2024-04-30T05:12:20.989Z,98293.50
2024-04-30T05:17:22.655Z,98304.75
2024-04-30T05:22:24.232Z,98300.78
2024-04-30T05:27:25.818Z,98291.06
2024-04-30T05:32:30.368Z,98301.59
2024-04-30T05:37:32.293Z,98308.78
2024-04-30T05:42:34.144Z,98310.66
2024-04-30T05:47:35.797Z,98300.28
2024-04-30T05:52:37.795Z,98295.00
2024-04-30T05:57:39.763Z,98299.38
2024-04-30T06:02:41.757Z,98292.06
2024-04-30T06:07:43.539Z,98284.50
2024-04-30T06:12:45.570Z,98295.41
2024-04-30T06:17:47.751Z,98295.16
2024-04-30T06:22:49.531Z,98292.94
2024-04-30T06:27:52.310Z,98289.38
2024-04-30T06:32:54.255Z,98279.72
2024-04-30T06:37:56.372Z,98281.69
2024-04-30T06:42:58.087Z,98270.56
2024-04-30T06:48:00.177Z,98253.94
2024-04-30T06:53:02.095Z,98266.09
2024-04-30T06:58:11.358Z,98247.00
2024-04-30T07:03:14.088Z,98255.00
2024-04-30T07:08:15.986Z,98240.41
2024-04-30T07:13:17.597Z,98246.16
2024-04-30T07:18:19.322Z,98239.59
2024-04-30T07:23:21.520Z,98233.22
2024-04-30T07:28:23.168Z,98224.69
2024-04-30T07:33:24.804Z,98224.31
2024-04-30T07:38:26.433Z,98226.47
2024-04-30T07:43:28.093Z,98233.03
2024-04-30T08:03:03.021Z,98233.28
2024-04-30T08:08:05.347Z,98200.09
2024-04-30T08:13:13.325Z,98214.72
2024-04-30T08:18:15.427Z,98206.44
2024-04-30T08:23:17.202Z,98221.03
2024-04-30T08:28:19.233Z,98221.06
2024-04-30T08:33:21.973Z,98213.72
2024-04-30T08:38:24.142Z,98230.91
2024-04-30T08:43:27.510Z,98227.16
2024-04-30T08:48:32.115Z,98220.06
2024-04-30T08:53:37.889Z,98218.16
2024-04-30T08:58:40.202Z,98214.81
2024-04-30T09:03:44.199Z,98210.63
2024-04-30T09:08:48.391Z,98205.91
2024-04-30T09:13:52.239Z,98203.31
2024-04-30T09:18:55.063Z,98199.50
2024-04-30T09:24:07.939Z,98188.50
2024-04-30T09:29:09.944Z,98180.91
2024-04-30T09:34:11.997Z,98175.50
2024-04-30T09:39:14.583Z,98180.03
2024-04-30T09:44:16.612Z,98165.09
2024-04-30T09:49:18.997Z,98160.38
2024-04-30T09:54:23.973Z,98157.47
2024-04-30T09:59:26.696Z,98137.38
2024-04-30T10:04:30.575Z,98125.06
2024-04-30T10:09:32.287Z,98112.94
2024-04-30T10:14:34.233Z,98110.78
2024-04-30T10:19:48.612Z,98108.41
2024-04-30T10:24:50.229Z,98089.81
2024-04-30T10:29:52.430Z,98109.09
2024-04-30T10:34:58.006Z,98089.03
2024-04-30T10:40:09.721Z,98094.50
2024-04-30T10:45:22.500Z,98082.06
2024-04-30T10:50:24.360Z,98085.22
2024-04-30T10:55:26.085Z,98071.66
2024-04-30T11:00:27.856Z,98053.47
2024-04-30T11:05:29.702Z,98069.81
2024-04-30T11:10:36.257Z,98061.28
2024-04-30T11:15:38.291Z,98044.88
2024-04-30T11:20:40.073Z,98038.09
2024-04-30T11:25:42.114Z,98050.06
2024-04-30T11:30:44.226Z,98041.31
2024-04-30T11:35:46.228Z,98038.19
2024-04-30T11:40:48.277Z,98041.03
2024-04-30T11:45:49.996Z,98032.16
2024-04-30T11:50:51.988Z,98017.25
2024-04-30T11:55:54.306Z,98020.38
2024-04-30T12:00:56.551Z,98015.00
2024-04-30T12:06:00.459Z,98006.88
2024-04-30T12:11:02.398Z,97995.78
2024-04-30T12:16:06.046Z,98006.19
2024-04-30T12:21:07.919Z,97994.78
2024-04-30T12:26:09.552Z,97988.69
2024-04-30T12:31:11.247Z,97974.28
2024-04-30T12:36:13.222Z,97980.16
2024-04-30T12:41:15.200Z,97965.94
2024-04-30T12:46:16.825Z,97959.81
2024-04-30T12:51:19.094Z,97954.81
2024-04-30T12:56:21.047Z,97952.88
2024-04-30T13:01:25.491Z,97940.09
2024-04-30T13:06:27.887Z,97957.56
2024-04-30T13:11:30.010Z,97952.53
2024-04-30T13:16:32.317Z,97937.56
2024-04-30T13:21:36.488Z,97946.31
2024-04-30T13:26:38.081Z,97932.50
2024-04-30T13:31:46.358Z,97922.59
2024-04-30T13:36:48.130Z,97911.94
2024-04-30T13:41:49.721Z,97886.34
2024-04-30T13:46:51.418Z,97896.53
2024-04-30T13:51:53.059Z,97893.88
2024-04-30T13:56:54.799Z,97888.25
2024-04-30T14:01:56.591Z,97884.56
2024-04-30T14:06:58.434Z,97867.38
2024-04-30T14:12:02.243Z,97868.94
2024-04-30T14:17:04.996Z,97860.56
2024-04-30T14:22:06.800Z,97863.00
2024-04-30T14:27:08.511Z,97858.88
2024-04-30T14:32:10.826Z,97850.22
2024-04-30T14:37:12.927Z,97852.19
2024-04-30T14:42:16.885Z,97848.25
2024-04-30T14:47:20.175Z,97835.06
2024-04-30T14:52:21.915Z,97846.28
2024-04-30T14:57:23.630Z,97855.41
2024-04-30T15:02:25.231Z,97836.56
2024-04-30T15:07:27.003Z,97837.13
2024-04-30T15:12:30.868Z,97839.00
2024-04-30T15:17:32.892Z,97834.03
2024-04-30T15:22:35.200Z,97836.91
2024-04-30T15:27:37.158Z,97833.47
2024-04-30T15:32:46.176Z,97820.50
2024-04-30T15:37:51.071Z,97835.38
2024-04-30T15:42:53.072Z,97822.50
2024-04-30T15:47:55.423Z,97822.66
2024-04-30T15:52:57.449Z,97804.81
2024-04-30T15:57:59.381Z,97813.97
2024-04-30T16:03:01.757Z,97813.50
2024-04-30T16:08:03.539Z,97812.56
2024-04-30T16:13:05.456Z,97805.13
2024-04-30T16:18:07.707Z,97798.56
2024-04-30T16:23:09.988Z,97802.28
2024-04-30T16:28:11.816Z,97784.69
2024-04-30T16:33:14.056Z,97781.66
2024-04-30T16:38:16.023Z,97780.69
2024-04-30T16:43:17.801Z,97783.25
2024-04-30T16:48:19.846Z,97782.56
2024-04-30T16:53:21.909Z,97786.91
2024-04-30T16:58:23.814Z,97774.44
2024-04-30T17:03:25.490Z,97767.53
2024-04-30T17:08:28.764Z,97769.91
2024-04-30T17:13:30.642Z,97759.91
2024-04-30T17:18:32.578Z,97768.59
2024-04-30T17:23:34.392Z,97763.84
2024-04-30T17:28:36.105Z,97754.00
2024-04-30T17:33:38.642Z,97736.63
2024-04-30T17:38:40.467Z,97736.00
2024-04-30T17:43:42.087Z,97723.66
2024-04-30T17:48:44.197Z,97709.88
2024-04-30T17:53:46.818Z,97732.31
2024-04-30T17:58:48.767Z,97747.81
2024-04-30T18:03:52.211Z,97745.69
2024-04-30T18:08:58.367Z,97752.56
2024-04-30T18:14:01.055Z,97718.13
2024-04-30T18:19:03.121Z,97752.94
2024-04-30T18:24:07.321Z,97754.28
2024-04-30T18:29:09.989Z,97738.06
2024-04-30T18:34:11.801Z,97743.97
2024-04-30T18:39:15.849Z,97757.84
2024-04-30T18:44:17.537Z,97760.50
2024-04-30T18:49:19.709Z,97755.88
2024-04-30T18:54:22.479Z,97752.75
2024-04-30T18:59:24.635Z,97759.28
2024-04-30T19:04:26.418Z,97748.50
2024-04-30T19:09:28.479Z,97755.00
2024-04-30T19:14:30.212Z,97752.63
2024-04-30T19:19:32.336Z,97743.53
2024-04-30T19:24:34.643Z,97752.69
2024-04-30T19:29:38.093Z,97750.53
2024-04-30T19:34:40.244Z,97746.75
2024-04-30T19:39:42.319Z,97749.44
2024-04-30T19:44:43.973Z,97730.72
2024-04-30T19:49:45.668Z,97734.63
2024-04-30T19:54:47.604Z,97732.38
2024-04-30T19:59:49.600Z,97733.06
2024-04-30T20:04:51.288Z,97727.63
2024-04-30T20:09:53.339Z,97718.28
2024-04-30T20:14:58.290Z,97724.16
2024-04-30T20:20:00.676Z,97727.28
2024-04-30T20:25:02.656Z,97711.41
2024-04-30T20:30:07.736Z,97716.91
2024-04-30T20:35:10.700Z,97705.78
2024-04-30T20:40:12.373Z,97699.13
2024-04-30T20:45:14.508Z,97697.84
2024-04-30T20:50:16.150Z,97692.38
2024-04-30T20:55:17.726Z,97701.13
2024-04-30T21:00:19.706Z,97689.63
2024-04-30T21:05:21.656Z,97695.81
2024-04-30T21:10:23.644Z,97677.97
2024-04-30T21:15:25.787Z,97697.41
2024-04-30T21:20:27.436Z,97687.50
2024-04-30T21:25:29.121Z,97688.97
2024-04-30T21:30:30.787Z,97680.25
2024-04-30T21:35:32.490Z,97671.00
2024-04-30T21:40:34.175Z,97675.19
2024-04-30T21:45:35.881Z,97673.91
2024-04-30T21:50:37.815Z,97663.53
2024-04-30T21:55:39.517Z,97666.41
2024-04-30T22:00:41.488Z,97634.81
2024-04-30T22:05:43.135Z,97638.56
2024-04-30T22:10:45.003Z,97643.50
2024-04-30T22:15:46.720Z,97628.41
2024-04-30T22:20:48.759Z,97618.81
2024-04-30T22:25:50.876Z,97626.91
2024-04-30T22:30:52.563Z,97623.72
2024-04-30T22:35:54.323Z,97611.00
2024-04-30T22:40:56.689Z,97621.81
2024-04-30T22:45:58.804Z,97616.50
2024-04-30T22:51:00.452Z,97606.75
2024-04-30T22:56:03.844Z,97603.00
2024-04-30T23:01:05.659Z,97596.38
2024-04-30T23:06:07.477Z,97593.94
2024-04-30T23:11:09.861Z,97593.09
2024-04-30T23:16:11.494Z,97587.03
2024-04-30T23:21:13.422Z,97598.97
2024-04-30T23:26:18.523Z,97604.13
2024-04-30T23:31:20.163Z,97603.75
2024-04-30T23:36:21.980Z,97614.50
2024-04-30T23:41:24.020Z,97613.59
2024-04-30T23:46:25.620Z,97617.88
2024-04-30T23:51:27.261Z,97616.13
2024-04-30T23:56:28.866Z,97620.00
